sensor_id;sensor_type;location;lat;lon;timestamp;P1;durP1;ratioP1;P2;durP2;ratioP2
2868;SDS011;1442;47.448;8.582;2022-10-16T00:02:19;6.60;;;2.85;;
2868;SDS011;1442;47.448;8.582;2022-10-16T00:04:46;7.13;;;2.83;;
2868;SDS011;1442;47.448;8.582;2022-10-16T00:07:13;5.80;;;2.70;;
2868;SDS011;1442;47.448;8.582;2022-10-16T00:09:40;7.35;;;2.92;;
2868;SDS011;1442;47.448;8.582;2022-10-16T00:12:09;5.13;;;3.00;;
2868;SDS011;1442;47.448;8.582;2022-10-16T00:14:36;4.88;;;2.63;;
2868;SDS011;1442;47.448;8.582;2022-10-16T00:17:05;6.03;;;2.50;;
2868;SDS011;1442;47.448;8.582;2022-10-16T00:19:32;11.27;;;3.03;;
2868;SDS011;1442;47.448;8.582;2022-10-16T00:22:00;5.38;;;2.72;;
2868;SDS011;1442;47.448;8.582;2022-10-16T00:24:27;6.05;;;2.80;;
2868;SDS011;1442;47.448;8.582;2022-10-16T00:26:54;4.63;;;3.10;;
2868;SDS011;1442;47.448;8.582;2022-10-16T00:29:23;7.43;;;2.80;;
2868;SDS011;1442;47.448;8.582;2022-10-16T00:31:50;5.32;;;2.78;;
2868;SDS011;1442;47.448;8.582;2022-10-16T00:34:17;7.33;;;2.90;;
2868;SDS011;1442;47.448;8.582;2022-10-16T00:36:44;5.23;;;2.77;;
2868;SDS011;1442;47.448;8.582;2022-10-16T00:39:11;9.10;;;3.08;;
2868;SDS011;1442;47.448;8.582;2022-10-16T00:41:38;7.47;;;3.10;;
2868;SDS011;1442;47.448;8.582;2022-10-16T00:46:48;14.38;;;3.10;;
2868;SDS011;1442;47.448;8.582;2022-10-16T00:49:17;6.93;;;3.35;;
2868;SDS011;1442;47.448;8.582;2022-10-16T00:51:46;5.83;;;3.23;;
2868;SDS011;1442;47.448;8.582;2022-10-16T00:54:14;6.03;;;3.30;;
2868;SDS011;1442;47.448;8.582;2022-10-16T00:56:42;7.13;;;3.17;;
2868;SDS011;1442;47.448;8.582;2022-10-16T00:59:11;6.63;;;3.22;;
2868;SDS011;1442;47.448;8.582;2022-10-16T01:01:40;9.48;;;3.33;;
2868;SDS011;1442;47.448;8.582;2022-10-16T01:04:08;11.05;;;3.17;;
2868;SDS011;1442;47.448;8.582;2022-10-16T01:06:36;6.00;;;3.07;;
2868;SDS011;1442;47.448;8.582;2022-10-16T01:09:13;8.20;;;3.05;;
2868;SDS011;1442;47.448;8.582;2022-10-16T01:11:44;11.60;;;3.13;;
2868;SDS011;1442;47.448;8.582;2022-10-16T01:14:13;9.23;;;3.40;;
2868;SDS011;1442;47.448;8.582;2022-10-16T01:16:43;6.72;;;2.83;;
2868;SDS011;1442;47.448;8.582;2022-10-16T01:19:13;5.40;;;2.60;;
2868;SDS011;1442;47.448;8.582;2022-10-16T01:21:43;7.35;;;3.05;;
2868;SDS011;1442;47.448;8.582;2022-10-16T01:24:15;14.10;;;3.38;;
2868;SDS011;1442;47.448;8.582;2022-10-16T01:29:28;8.93;;;2.78;;
2868;SDS011;1442;47.448;8.582;2022-10-16T01:31:57;11.55;;;3.15;;
2868;SDS011;1442;47.448;8.582;2022-10-16T01:34:28;6.82;;;2.83;;
2868;SDS011;1442;47.448;8.582;2022-10-16T01:37:00;8.90;;;3.10;;
2868;SDS011;1442;47.448;8.582;2022-10-16T01:39:29;9.63;;;2.97;;
2868;SDS011;1442;47.448;8.582;2022-10-16T01:41:58;8.23;;;2.88;;
2868;SDS011;1442;47.448;8.582;2022-10-16T01:44:29;5.38;;;2.90;;
2868;SDS011;1442;47.448;8.582;2022-10-16T01:46:57;8.65;;;3.58;;
2868;SDS011;1442;47.448;8.582;2022-10-16T01:49:26;12.40;;;3.25;;
2868;SDS011;1442;47.448;8.582;2022-10-16T01:51:56;11.30;;;3.40;;
2868;SDS011;1442;47.448;8.582;2022-10-16T01:54:25;7.07;;;3.15;;
2868;SDS011;1442;47.448;8.582;2022-10-16T01:56:54;9.50;;;3.38;;
2868;SDS011;1442;47.448;8.582;2022-10-16T01:59:22;6.53;;;3.13;;
2868;SDS011;1442;47.448;8.582;2022-10-16T02:01:52;15.27;;;3.35;;
2868;SDS011;1442;47.448;8.582;2022-10-16T02:04:20;10.95;;;3.20;;
2868;SDS011;1442;47.448;8.582;2022-10-16T02:06:48;9.50;;;3.25;;
2868;SDS011;1442;47.448;8.582;2022-10-16T02:09:15;8.18;;;3.33;;
2868;SDS011;1442;47.448;8.582;2022-10-16T02:11:42;11.60;;;3.65;;
2868;SDS011;1442;47.448;8.582;2022-10-16T02:14:10;8.30;;;3.55;;
2868;SDS011;1442;47.448;8.582;2022-10-16T02:16:38;8.03;;;3.03;;
2868;SDS011;1442;47.448;8.582;2022-10-16T02:19:07;8.30;;;3.47;;
2868;SDS011;1442;47.448;8.582;2022-10-16T02:21:36;9.83;;;3.13;;
2868;SDS011;1442;47.448;8.582;2022-10-16T02:24:07;10.77;;;3.65;;
2868;SDS011;1442;47.448;8.582;2022-10-16T02:26:36;6.30;;;3.30;;
2868;SDS011;1442;47.448;8.582;2022-10-16T02:29:08;11.85;;;3.88;;
2868;SDS011;1442;47.448;8.582;2022-10-16T02:31:38;6.40;;;3.03;;
2868;SDS011;1442;47.448;8.582;2022-10-16T02:34:09;7.45;;;3.45;;
2868;SDS011;1442;47.448;8.582;2022-10-16T02:36:37;8.55;;;3.20;;
2868;SDS011;1442;47.448;8.582;2022-10-16T02:39:05;10.50;;;3.30;;
2868;SDS011;1442;47.448;8.582;2022-10-16T02:41:33;10.50;;;3.50;;
2868;SDS011;1442;47.448;8.582;2022-10-16T02:44:00;8.38;;;3.22;;
2868;SDS011;1442;47.448;8.582;2022-10-16T02:46:27;6.20;;;2.70;;
2868;SDS011;1442;47.448;8.582;2022-10-16T02:48:54;8.90;;;2.80;;
2868;SDS011;1442;47.448;8.582;2022-10-16T02:51:22;8.77;;;3.00;;
2868;SDS011;1442;47.448;8.582;2022-10-16T02:53:50;5.85;;;3.10;;
2868;SDS011;1442;47.448;8.582;2022-10-16T02:56:17;8.90;;;3.25;;
2868;SDS011;1442;47.448;8.582;2022-10-16T02:58:44;5.57;;;3.47;;
2868;SDS011;1442;47.448;8.582;2022-10-16T03:01:11;6.97;;;2.92;;
2868;SDS011;1442;47.448;8.582;2022-10-16T03:03:39;7.50;;;3.42;;
2868;SDS011;1442;47.448;8.582;2022-10-16T03:06:06;6.20;;;3.15;;
2868;SDS011;1442;47.448;8.582;2022-10-16T03:08:34;10.50;;;3.50;;
2868;SDS011;1442;47.448;8.582;2022-10-16T03:11:01;7.05;;;3.67;;
2868;SDS011;1442;47.448;8.582;2022-10-16T03:13:28;11.63;;;3.58;;
2868;SDS011;1442;47.448;8.582;2022-10-16T03:15:56;10.27;;;3.17;;
2868;SDS011;1442;47.448;8.582;2022-10-16T03:18:23;6.72;;;3.42;;
2868;SDS011;1442;47.448;8.582;2022-10-16T03:20:50;9.40;;;3.53;;
2868;SDS011;1442;47.448;8.582;2022-10-16T03:23:17;6.30;;;2.90;;
2868;SDS011;1442;47.448;8.582;2022-10-16T03:25:45;10.02;;;3.22;;
2868;SDS011;1442;47.448;8.582;2022-10-16T03:28:12;7.50;;;3.25;;
2868;SDS011;1442;47.448;8.582;2022-10-16T03:30:40;11.05;;;3.60;;
2868;SDS011;1442;47.448;8.582;2022-10-16T03:33:07;8.35;;;3.20;;
2868;SDS011;1442;47.448;8.582;2022-10-16T03:35:34;6.95;;;3.50;;
2868;SDS011;1442;47.448;8.582;2022-10-16T03:38:01;7.45;;;3.40;;
2868;SDS011;1442;47.448;8.582;2022-10-16T03:40:28;7.90;;;2.80;;
2868;SDS011;1442;47.448;8.582;2022-10-16T03:42:58;8.32;;;3.20;;
2868;SDS011;1442;47.448;8.582;2022-10-16T03:45:25;6.45;;;3.33;;
2868;SDS011;1442;47.448;8.582;2022-10-16T03:47:52;8.40;;;3.28;;
2868;SDS011;1442;47.448;8.582;2022-10-16T03:50:19;9.45;;;3.03;;
2868;SDS011;1442;47.448;8.582;2022-10-16T03:52:46;7.40;;;2.92;;
2868;SDS011;1442;47.448;8.582;2022-10-16T03:55:13;7.15;;;3.40;;
2868;SDS011;1442;47.448;8.582;2022-10-16T03:57:41;5.68;;;3.45;;
2868;SDS011;1442;47.448;8.582;2022-10-16T04:00:10;9.60;;;2.92;;
2868;SDS011;1442;47.448;8.582;2022-10-16T04:02:37;11.05;;;3.50;;
2868;SDS011;1442;47.448;8.582;2022-10-16T04:05:04;10.80;;;3.70;;
2868;SDS011;1442;47.448;8.582;2022-10-16T04:07:32;7.00;;;3.88;;
2868;SDS011;1442;47.448;8.582;2022-10-16T04:09:59;9.35;;;3.58;;
2868;SDS011;1442;47.448;8.582;2022-10-16T04:12:26;6.45;;;3.05;;
2868;SDS011;1442;47.448;8.582;2022-10-16T04:14:53;10.05;;;3.33;;
2868;SDS011;1442;47.448;8.582;2022-10-16T04:17:22;9.65;;;3.80;;
2868;SDS011;1442;47.448;8.582;2022-10-16T04:19:49;6.47;;;3.20;;
2868;SDS011;1442;47.448;8.582;2022-10-16T04:22:16;10.38;;;3.50;;
2868;SDS011;1442;47.448;8.582;2022-10-16T04:24:43;9.65;;;3.05;;
2868;SDS011;1442;47.448;8.582;2022-10-16T04:27:10;8.90;;;3.35;;
2868;SDS011;1442;47.448;8.582;2022-10-16T04:29:37;9.30;;;3.30;;
2868;SDS011;1442;47.448;8.582;2022-10-16T04:32:04;9.93;;;3.35;;
2868;SDS011;1442;47.448;8.582;2022-10-16T04:34:32;8.32;;;3.05;;
2868;SDS011;1442;47.448;8.582;2022-10-16T04:37:00;6.30;;;3.38;;
2868;SDS011;1442;47.448;8.582;2022-10-16T04:39:27;9.50;;;3.70;;
2868;SDS011;1442;47.448;8.582;2022-10-16T04:41:54;9.07;;;4.03;;
2868;SDS011;1442;47.448;8.582;2022-10-16T04:44:21;8.20;;;4.32;;
2868;SDS011;1442;47.448;8.582;2022-10-16T04:46:49;6.63;;;4.00;;
2868;SDS011;1442;47.448;8.582;2022-10-16T04:49:17;9.65;;;3.80;;
2868;SDS011;1442;47.448;8.582;2022-10-16T04:51:45;12.52;;;4.00;;
2868;SDS011;1442;47.448;8.582;2022-10-16T04:54:12;7.55;;;3.40;;
2868;SDS011;1442;47.448;8.582;2022-10-16T04:56:39;8.27;;;3.03;;
2868;SDS011;1442;47.448;8.582;2022-10-16T04:59:12;12.10;;;3.47;;
2868;SDS011;1442;47.448;8.582;2022-10-16T05:01:39;8.90;;;3.17;;
2868;SDS011;1442;47.448;8.582;2022-10-16T05:04:06;9.35;;;3.60;;
2868;SDS011;1442;47.448;8.582;2022-10-16T05:06:33;7.38;;;3.13;;
2868;SDS011;1442;47.448;8.582;2022-10-16T05:09:02;7.65;;;3.30;;
2868;SDS011;1442;47.448;8.582;2022-10-16T05:11:29;5.93;;;3.58;;
2868;SDS011;1442;47.448;8.582;2022-10-16T05:13:56;9.65;;;3.50;;
2868;SDS011;1442;47.448;8.582;2022-10-16T05:16:23;9.65;;;3.40;;
2868;SDS011;1442;47.448;8.582;2022-10-16T05:18:51;9.05;;;3.35;;
2868;SDS011;1442;47.448;8.582;2022-10-16T05:21:18;6.57;;;3.53;;
2868;SDS011;1442;47.448;8.582;2022-10-16T05:23:45;9.63;;;3.65;;
2868;SDS011;1442;47.448;8.582;2022-10-16T05:26:14;8.02;;;3.33;;
2868;SDS011;1442;47.448;8.582;2022-10-16T05:28:41;10.25;;;3.55;;
2868;SDS011;1442;47.448;8.582;2022-10-16T05:31:08;6.72;;;3.33;;
2868;SDS011;1442;47.448;8.582;2022-10-16T05:33:36;7.87;;;3.40;;
2868;SDS011;1442;47.448;8.582;2022-10-16T05:36:04;8.48;;;3.30;;
2868;SDS011;1442;47.448;8.582;2022-10-16T05:38:32;11.30;;;2.97;;
2868;SDS011;1442;47.448;8.582;2022-10-16T05:40:59;11.27;;;3.17;;
2868;SDS011;1442;47.448;8.582;2022-10-16T05:43:28;7.95;;;3.40;;
2868;SDS011;1442;47.448;8.582;2022-10-16T05:45:55;6.40;;;2.72;;
2868;SDS011;1442;47.448;8.582;2022-10-16T05:48:22;11.00;;;2.75;;
2868;SDS011;1442;47.448;8.582;2022-10-16T05:50:55;7.70;;;2.60;;
2868;SDS011;1442;47.448;8.582;2022-10-16T05:53:23;7.77;;;2.87;;
2868;SDS011;1442;47.448;8.582;2022-10-16T05:55:51;8.25;;;2.83;;
2868;SDS011;1442;47.448;8.582;2022-10-16T05:58:18;12.75;;;3.05;;
2868;SDS011;1442;47.448;8.582;2022-10-16T06:00:53;5.93;;;3.00;;
2868;SDS011;1442;47.448;8.582;2022-10-16T06:03:21;9.00;;;2.60;;
2868;SDS011;1442;47.448;8.582;2022-10-16T06:05:48;9.18;;;2.60;;
2868;SDS011;1442;47.448;8.582;2022-10-16T06:08:15;7.65;;;2.45;;
2868;SDS011;1442;47.448;8.582;2022-10-16T06:10:42;6.88;;;2.30;;
2868;SDS011;1442;47.448;8.582;2022-10-16T06:13:10;9.75;;;3.03;;
2868;SDS011;1442;47.448;8.582;2022-10-16T06:15:37;9.35;;;2.80;;
2868;SDS011;1442;47.448;8.582;2022-10-16T06:18:08;6.00;;;2.97;;
2868;SDS011;1442;47.448;8.582;2022-10-16T06:20:35;6.20;;;2.47;;
2868;SDS011;1442;47.448;8.582;2022-10-16T06:23:02;6.40;;;2.42;;
2868;SDS011;1442;47.448;8.582;2022-10-16T06:25:29;7.93;;;2.08;;
2868;SDS011;1442;47.448;8.582;2022-10-16T06:27:57;7.45;;;1.95;;
2868;SDS011;1442;47.448;8.582;2022-10-16T06:30:24;7.15;;;1.90;;
2868;SDS011;1442;47.448;8.582;2022-10-16T06:32:51;4.80;;;2.03;;
2868;SDS011;1442;47.448;8.582;2022-10-16T06:35:19;7.05;;;2.33;;
2868;SDS011;1442;47.448;8.582;2022-10-16T06:37:46;6.50;;;2.50;;
2868;SDS011;1442;47.448;8.582;2022-10-16T06:40:14;6.55;;;2.28;;
2868;SDS011;1442;47.448;8.582;2022-10-16T06:42:41;8.95;;;2.63;;
2868;SDS011;1442;47.448;8.582;2022-10-16T06:45:09;6.47;;;2.25;;
2868;SDS011;1442;47.448;8.582;2022-10-16T06:47:36;7.60;;;2.63;;
2868;SDS011;1442;47.448;8.582;2022-10-16T06:50:03;11.00;;;2.60;;
2868;SDS011;1442;47.448;8.582;2022-10-16T06:52:34;9.30;;;2.67;;
2868;SDS011;1442;47.448;8.582;2022-10-16T06:55:01;5.27;;;2.10;;
2868;SDS011;1442;47.448;8.582;2022-10-16T06:57:28;5.38;;;2.10;;
2868;SDS011;1442;47.448;8.582;2022-10-16T06:59:56;4.43;;;2.13;;
2868;SDS011;1442;47.448;8.582;2022-10-16T07:02:23;6.03;;;2.00;;
2868;SDS011;1442;47.448;8.582;2022-10-16T07:04:50;11.68;;;2.70;;
2868;SDS011;1442;47.448;8.582;2022-10-16T07:07:17;6.45;;;2.45;;
2868;SDS011;1442;47.448;8.582;2022-10-16T07:09:45;7.18;;;2.28;;
2868;SDS011;1442;47.448;8.582;2022-10-16T07:12:12;7.82;;;2.10;;
2868;SDS011;1442;47.448;8.582;2022-10-16T07:14:39;8.20;;;2.30;;
2868;SDS011;1442;47.448;8.582;2022-10-16T07:17:07;7.43;;;2.40;;
2868;SDS011;1442;47.448;8.582;2022-10-16T07:19:34;10.27;;;2.00;;
2868;SDS011;1442;47.448;8.582;2022-10-16T07:22:01;5.90;;;2.10;;
2868;SDS011;1442;47.448;8.582;2022-10-16T07:24:29;4.50;;;2.42;;
2868;SDS011;1442;47.448;8.582;2022-10-16T07:26:58;9.18;;;2.30;;
2868;SDS011;1442;47.448;8.582;2022-10-16T07:29:25;6.88;;;2.20;;
2868;SDS011;1442;47.448;8.582;2022-10-16T07:31:52;8.35;;;2.13;;
2868;SDS011;1442;47.448;8.582;2022-10-16T07:34:20;5.60;;;2.15;;
2868;SDS011;1442;47.448;8.582;2022-10-16T07:36:47;6.50;;;1.90;;
2868;SDS011;1442;47.448;8.582;2022-10-16T07:39:14;8.13;;;2.50;;
2868;SDS011;1442;47.448;8.582;2022-10-16T07:41:42;7.65;;;2.17;;
2868;SDS011;1442;47.448;8.582;2022-10-16T07:44:10;6.28;;;2.08;;
2868;SDS011;1442;47.448;8.582;2022-10-16T07:46:37;8.27;;;2.78;;
2868;SDS011;1442;47.448;8.582;2022-10-16T07:49:04;9.25;;;2.60;;
2868;SDS011;1442;47.448;8.582;2022-10-16T07:51:31;4.45;;;2.08;;
2868;SDS011;1442;47.448;8.582;2022-10-16T07:53:58;9.18;;;2.10;;
2868;SDS011;1442;47.448;8.582;2022-10-16T07:56:26;4.78;;;2.10;;
2868;SDS011;1442;47.448;8.582;2022-10-16T07:58:53;5.57;;;2.40;;
2868;SDS011;1442;47.448;8.582;2022-10-16T08:01:22;4.78;;;2.00;;
2868;SDS011;1442;47.448;8.582;2022-10-16T08:03:50;7.50;;;2.35;;
2868;SDS011;1442;47.448;8.582;2022-10-16T08:06:18;5.15;;;2.20;;
2868;SDS011;1442;47.448;8.582;2022-10-16T08:08:45;6.40;;;2.25;;
2868;SDS011;1442;47.448;8.582;2022-10-16T08:11:12;4.75;;;2.05;;
2868;SDS011;1442;47.448;8.582;2022-10-16T08:13:40;5.43;;;2.00;;
2868;SDS011;1442;47.448;8.582;2022-10-16T08:16:07;5.05;;;1.90;;
2868;SDS011;1442;47.448;8.582;2022-10-16T08:18:36;5.55;;;1.77;;
2868;SDS011;1442;47.448;8.582;2022-10-16T08:21:04;8.27;;;2.00;;
2868;SDS011;1442;47.448;8.582;2022-10-16T08:23:32;5.93;;;1.80;;
2868;SDS011;1442;47.448;8.582;2022-10-16T08:26:01;3.55;;;1.80;;
2868;SDS011;1442;47.448;8.582;2022-10-16T08:28:28;5.65;;;1.58;;
2868;SDS011;1442;47.448;8.582;2022-10-16T08:30:55;3.22;;;1.40;;
2868;SDS011;1442;47.448;8.582;2022-10-16T08:33:23;7.85;;;2.00;;
2868;SDS011;1442;47.448;8.582;2022-10-16T08:35:51;5.70;;;1.70;;
2868;SDS011;1442;47.448;8.582;2022-10-16T08:38:19;7.17;;;1.70;;
2868;SDS011;1442;47.448;8.582;2022-10-16T08:40:46;4.45;;;1.83;;
2868;SDS011;1442;47.448;8.582;2022-10-16T08:43:35;7.13;;;2.08;;
2868;SDS011;1442;47.448;8.582;2022-10-16T08:46:16;5.13;;;1.90;;
2868;SDS011;1442;47.448;8.582;2022-10-16T08:48:48;7.13;;;2.45;;
2868;SDS011;1442;47.448;8.582;2022-10-16T08:51:20;5.40;;;1.90;;
2868;SDS011;1442;47.448;8.582;2022-10-16T08:53:49;3.80;;;2.20;;
2868;SDS011;1442;47.448;8.582;2022-10-16T08:56:18;4.30;;;2.22;;
2868;SDS011;1442;47.448;8.582;2022-10-16T08:58:45;5.25;;;2.22;;
2868;SDS011;1442;47.448;8.582;2022-10-16T09:01:13;4.78;;;2.40;;
2868;SDS011;1442;47.448;8.582;2022-10-16T09:03:44;7.82;;;2.63;;
2868;SDS011;1442;47.448;8.582;2022-10-16T09:09:11;6.88;;;2.45;;
2868;SDS011;1442;47.448;8.582;2022-10-16T09:11:43;6.27;;;2.90;;
2868;SDS011;1442;47.448;8.582;2022-10-16T09:14:17;4.18;;;2.53;;
2868;SDS011;1442;47.448;8.582;2022-10-16T09:16:48;7.97;;;2.60;;
2868;SDS011;1442;47.448;8.582;2022-10-16T09:19:19;5.07;;;2.40;;
2868;SDS011;1442;47.448;8.582;2022-10-16T09:21:47;6.05;;;2.15;;
2868;SDS011;1442;47.448;8.582;2022-10-16T09:24:18;5.03;;;2.47;;
2868;SDS011;1442;47.448;8.582;2022-10-16T09:26:46;7.13;;;2.17;;
2868;SDS011;1442;47.448;8.582;2022-10-16T09:29:13;4.38;;;2.10;;
2868;SDS011;1442;47.448;8.582;2022-10-16T09:31:41;5.80;;;2.03;;
2868;SDS011;1442;47.448;8.582;2022-10-16T09:34:11;4.97;;;1.70;;
2868;SDS011;1442;47.448;8.582;2022-10-16T09:36:44;3.97;;;1.60;;
2868;SDS011;1442;47.448;8.582;2022-10-16T09:39:11;6.47;;;1.70;;
2868;SDS011;1442;47.448;8.582;2022-10-16T09:41:40;4.15;;;1.50;;
2868;SDS011;1442;47.448;8.582;2022-10-16T09:44:16;4.15;;;1.55;;
2868;SDS011;1442;47.448;8.582;2022-10-16T09:46:45;10.40;;;2.70;;
2868;SDS011;1442;47.448;8.582;2022-10-16T09:49:20;4.75;;;1.88;;
2868;SDS011;1442;47.448;8.582;2022-10-16T09:51:47;4.75;;;1.58;;
2868;SDS011;1442;47.448;8.582;2022-10-16T09:54:14;3.45;;;1.35;;
2868;SDS011;1442;47.448;8.582;2022-10-16T09:56:43;4.03;;;1.50;;
2868;SDS011;1442;47.448;8.582;2022-10-16T09:59:15;3.28;;;1.50;;
2868;SDS011;1442;47.448;8.582;2022-10-16T10:01:43;3.08;;;1.50;;
2868;SDS011;1442;47.448;8.582;2022-10-16T10:04:11;5.63;;;1.40;;
2868;SDS011;1442;47.448;8.582;2022-10-16T10:06:40;2.40;;;1.30;;
2868;SDS011;1442;47.448;8.582;2022-10-16T10:09:15;3.85;;;1.50;;
2868;SDS011;1442;47.448;8.582;2022-10-16T10:11:53;3.58;;;1.38;;
2868;SDS011;1442;47.448;8.582;2022-10-16T10:14:22;1.80;;;1.15;;
2868;SDS011;1442;47.448;8.582;2022-10-16T10:16:50;4.13;;;1.27;;
2868;SDS011;1442;47.448;8.582;2022-10-16T10:19:18;3.20;;;1.30;;
2868;SDS011;1442;47.448;8.582;2022-10-16T10:21:45;4.35;;;1.30;;
2868;SDS011;1442;47.448;8.582;2022-10-16T10:24:13;5.07;;;1.20;;
2868;SDS011;1442;47.448;8.582;2022-10-16T10:26:41;7.22;;;1.20;;
2868;SDS011;1442;47.448;8.582;2022-10-16T10:29:14;2.53;;;1.05;;
2868;SDS011;1442;47.448;8.582;2022-10-16T10:31:43;4.40;;;1.40;;
2868;SDS011;1442;47.448;8.582;2022-10-16T10:34:17;2.88;;;1.20;;
2868;SDS011;1442;47.448;8.582;2022-10-16T10:36:45;4.30;;;1.10;;
2868;SDS011;1442;47.448;8.582;2022-10-16T10:39:19;3.45;;;1.50;;
2868;SDS011;1442;47.448;8.582;2022-10-16T10:41:56;2.60;;;1.30;;
2868;SDS011;1442;47.448;8.582;2022-10-16T10:44:29;2.75;;;1.02;;
2868;SDS011;1442;47.448;8.582;2022-10-16T10:47:01;2.80;;;1.30;;
2868;SDS011;1442;47.448;8.582;2022-10-16T10:49:34;2.85;;;1.17;;
2868;SDS011;1442;47.448;8.582;2022-10-16T10:52:07;3.30;;;1.30;;
2868;SDS011;1442;47.448;8.582;2022-10-16T10:54:40;2.75;;;1.30;;
2868;SDS011;1442;47.448;8.582;2022-10-16T10:57:09;1.90;;;1.20;;
2868;SDS011;1442;47.448;8.582;2022-10-16T10:59:40;7.32;;;1.10;;
2868;SDS011;1442;47.448;8.582;2022-10-16T11:02:14;3.90;;;1.27;;
2868;SDS011;1442;47.448;8.582;2022-10-16T11:04:46;5.45;;;1.40;;
2868;SDS011;1442;47.448;8.582;2022-10-16T11:07:17;4.15;;;1.10;;
2868;SDS011;1442;47.448;8.582;2022-10-16T11:09:47;5.00;;;1.00;;
2868;SDS011;1442;47.448;8.582;2022-10-16T11:12:15;3.70;;;1.10;;
2868;SDS011;1442;47.448;8.582;2022-10-16T11:14:47;4.80;;;1.40;;
2868;SDS011;1442;47.448;8.582;2022-10-16T11:17:17;3.80;;;1.17;;
2868;SDS011;1442;47.448;8.582;2022-10-16T11:19:46;4.20;;;1.13;;
2868;SDS011;1442;47.448;8.582;2022-10-16T11:22:15;1.92;;;1.02;;
2868;SDS011;1442;47.448;8.582;2022-10-16T11:24:45;3.13;;;1.00;;
2868;SDS011;1442;47.448;8.582;2022-10-16T11:27:14;2.72;;;1.10;;
2868;SDS011;1442;47.448;8.582;2022-10-16T11:29:44;3.80;;;1.13;;
2868;SDS011;1442;47.448;8.582;2022-10-16T11:32:15;2.75;;;1.20;;
2868;SDS011;1442;47.448;8.582;2022-10-16T11:34:47;3.45;;;0.98;;
2868;SDS011;1442;47.448;8.582;2022-10-16T11:37:16;3.00;;;0.80;;
2868;SDS011;1442;47.448;8.582;2022-10-16T11:39:46;1.60;;;1.00;;
2868;SDS011;1442;47.448;8.582;2022-10-16T11:42:16;1.83;;;1.13;;
2868;SDS011;1442;47.448;8.582;2022-10-16T11:44:48;2.33;;;1.55;;
2868;SDS011;1442;47.448;8.582;2022-10-16T11:47:23;2.63;;;1.30;;
2868;SDS011;1442;47.448;8.582;2022-10-16T11:49:52;2.15;;;1.17;;
2868;SDS011;1442;47.448;8.582;2022-10-16T11:52:20;2.73;;;1.10;;
2868;SDS011;1442;47.448;8.582;2022-10-16T11:54:51;1.42;;;1.02;;
2868;SDS011;1442;47.448;8.582;2022-10-16T11:57:20;3.33;;;0.90;;
2868;SDS011;1442;47.448;8.582;2022-10-16T11:59:48;4.93;;;1.00;;
2868;SDS011;1442;47.448;8.582;2022-10-16T12:02:26;1.40;;;1.17;;
2868;SDS011;1442;47.448;8.582;2022-10-16T12:04:57;3.50;;;0.80;;
2868;SDS011;1442;47.448;8.582;2022-10-16T12:07:31;1.70;;;1.00;;
2868;SDS011;1442;47.448;8.582;2022-10-16T12:10:09;3.10;;;0.95;;
2868;SDS011;1442;47.448;8.582;2022-10-16T12:12:38;3.97;;;1.00;;
2868;SDS011;1442;47.448;8.582;2022-10-16T12:15:18;2.72;;;1.10;;
2868;SDS011;1442;47.448;8.582;2022-10-16T12:17:46;1.77;;;0.95;;
2868;SDS011;1442;47.448;8.582;2022-10-16T12:20:24;3.90;;;1.10;;
2868;SDS011;1442;47.448;8.582;2022-10-16T12:22:52;3.27;;;1.10;;
2868;SDS011;1442;47.448;8.582;2022-10-16T12:25:21;3.20;;;1.33;;
2868;SDS011;1442;47.448;8.582;2022-10-16T12:27:56;4.25;;;1.17;;
2868;SDS011;1442;47.448;8.582;2022-10-16T12:30:24;2.13;;;0.98;;
2868;SDS011;1442;47.448;8.582;2022-10-16T12:32:54;3.45;;;1.20;;
2868;SDS011;1442;47.448;8.582;2022-10-16T12:35:22;2.00;;;1.00;;
2868;SDS011;1442;47.448;8.582;2022-10-16T12:37:50;2.55;;;1.27;;
2868;SDS011;1442;47.448;8.582;2022-10-16T12:40:23;4.78;;;1.10;;
2868;SDS011;1442;47.448;8.582;2022-10-16T12:42:51;2.28;;;1.10;;
2868;SDS011;1442;47.448;8.582;2022-10-16T12:45:26;1.58;;;0.98;;
2868;SDS011;1442;47.448;8.582;2022-10-16T12:47:55;1.88;;;1.10;;
2868;SDS011;1442;47.448;8.582;2022-10-16T12:50:24;7.57;;;1.10;;
2868;SDS011;1442;47.448;8.582;2022-10-16T12:52:51;2.58;;;1.20;;
2868;SDS011;1442;47.448;8.582;2022-10-16T12:55:19;3.10;;;1.20;;
2868;SDS011;1442;47.448;8.582;2022-10-16T12:57:51;2.80;;;1.20;;
2868;SDS011;1442;47.448;8.582;2022-10-16T13:00:24;1.80;;;1.02;;
2868;SDS011;1442;47.448;8.582;2022-10-16T13:03:11;2.17;;;1.10;;
2868;SDS011;1442;47.448;8.582;2022-10-16T13:05:49;3.20;;;1.30;;
2868;SDS011;1442;47.448;8.582;2022-10-16T13:08:24;1.70;;;1.20;;
2868;SDS011;1442;47.448;8.582;2022-10-16T13:10:58;2.58;;;1.15;;
2868;SDS011;1442;47.448;8.582;2022-10-16T13:13:40;5.57;;;2.42;;
2868;SDS011;1442;47.448;8.582;2022-10-16T13:16:12;5.00;;;1.67;;
2868;SDS011;1442;47.448;8.582;2022-10-16T13:18:46;5.03;;;2.78;;
2868;SDS011;1442;47.448;8.582;2022-10-16T13:21:18;5.60;;;2.00;;
2868;SDS011;1442;47.448;8.582;2022-10-16T13:23:49;7.75;;;1.70;;
2868;SDS011;1442;47.448;8.582;2022-10-16T13:26:21;3.38;;;1.25;;
2868;SDS011;1442;47.448;8.582;2022-10-16T13:28:50;2.08;;;1.10;;
2868;SDS011;1442;47.448;8.582;2022-10-16T13:31:18;3.90;;;1.10;;
2868;SDS011;1442;47.448;8.582;2022-10-16T13:33:48;1.90;;;1.20;;
2868;SDS011;1442;47.448;8.582;2022-10-16T13:36:20;2.07;;;1.10;;
2868;SDS011;1442;47.448;8.582;2022-10-16T13:38:48;2.22;;;1.10;;
2868;SDS011;1442;47.448;8.582;2022-10-16T13:41:16;3.17;;;1.10;;
2868;SDS011;1442;47.448;8.582;2022-10-16T13:43:45;3.42;;;1.27;;
2868;SDS011;1442;47.448;8.582;2022-10-16T13:46:14;2.30;;;1.13;;
2868;SDS011;1442;47.448;8.582;2022-10-16T13:48:42;1.92;;;1.23;;
2868;SDS011;1442;47.448;8.582;2022-10-16T13:51:13;4.53;;;1.15;;
2868;SDS011;1442;47.448;8.582;2022-10-16T13:53:41;3.35;;;1.00;;
2868;SDS011;1442;47.448;8.582;2022-10-16T13:56:10;5.13;;;1.00;;
2868;SDS011;1442;47.448;8.582;2022-10-16T13:58:37;1.98;;;1.00;;
2868;SDS011;1442;47.448;8.582;2022-10-16T14:01:05;3.00;;;1.10;;
2868;SDS011;1442;47.448;8.582;2022-10-16T14:03:32;3.72;;;0.98;;
2868;SDS011;1442;47.448;8.582;2022-10-16T14:06:01;4.50;;;1.10;;
2868;SDS011;1442;47.448;8.582;2022-10-16T14:08:30;1.95;;;1.20;;
2868;SDS011;1442;47.448;8.582;2022-10-16T14:10:58;4.00;;;1.23;;
2868;SDS011;1442;47.448;8.582;2022-10-16T14:13:28;1.95;;;1.30;;
2868;SDS011;1442;47.448;8.582;2022-10-16T14:15:56;2.47;;;1.23;;
2868;SDS011;1442;47.448;8.582;2022-10-16T14:18:25;1.10;;;1.00;;
2868;SDS011;1442;47.448;8.582;2022-10-16T14:20:53;3.83;;;1.40;;
2868;SDS011;1442;47.448;8.582;2022-10-16T14:23:22;7.45;;;1.30;;
2868;SDS011;1442;47.448;8.582;2022-10-16T14:25:52;2.03;;;1.10;;
2868;SDS011;1442;47.448;8.582;2022-10-16T14:28:20;5.10;;;1.47;;
2868;SDS011;1442;47.448;8.582;2022-10-16T14:30:51;4.47;;;1.45;;
2868;SDS011;1442;47.448;8.582;2022-10-16T14:33:20;2.40;;;1.20;;
2868;SDS011;1442;47.448;8.582;2022-10-16T14:35:57;3.88;;;1.25;;
2868;SDS011;1442;47.448;8.582;2022-10-16T14:38:25;5.55;;;1.65;;
2868;SDS011;1442;47.448;8.582;2022-10-16T14:40:54;3.88;;;1.38;;
2868;SDS011;1442;47.448;8.582;2022-10-16T14:43:26;4.55;;;1.50;;
2868;SDS011;1442;47.448;8.582;2022-10-16T14:45:54;4.63;;;1.45;;
2868;SDS011;1442;47.448;8.582;2022-10-16T14:48:22;7.50;;;1.30;;
2868;SDS011;1442;47.448;8.582;2022-10-16T14:50:50;2.90;;;1.40;;
2868;SDS011;1442;47.448;8.582;2022-10-16T14:53:17;2.63;;;1.50;;
2868;SDS011;1442;47.448;8.582;2022-10-16T14:55:44;6.45;;;1.50;;
2868;SDS011;1442;47.448;8.582;2022-10-16T14:58:14;5.82;;;1.30;;
2868;SDS011;1442;47.448;8.582;2022-10-16T15:00:42;3.33;;;1.33;;
2868;SDS011;1442;47.448;8.582;2022-10-16T15:03:09;2.53;;;1.30;;
2868;SDS011;1442;47.448;8.582;2022-10-16T15:05:36;7.80;;;1.27;;
2868;SDS011;1442;47.448;8.582;2022-10-16T15:08:03;3.80;;;1.20;;
2868;SDS011;1442;47.448;8.582;2022-10-16T15:10:31;4.90;;;1.30;;
2868;SDS011;1442;47.448;8.582;2022-10-16T15:12:59;4.78;;;1.40;;
2868;SDS011;1442;47.448;8.582;2022-10-16T15:15:30;7.50;;;1.40;;
2868;SDS011;1442;47.448;8.582;2022-10-16T15:17:59;4.40;;;1.40;;
2868;SDS011;1442;47.448;8.582;2022-10-16T15:20:28;5.30;;;1.48;;
2868;SDS011;1442;47.448;8.582;2022-10-16T15:22:56;3.30;;;1.48;;
2868;SDS011;1442;47.448;8.582;2022-10-16T15:25:29;5.90;;;1.20;;
2868;SDS011;1442;47.448;8.582;2022-10-16T15:27:56;6.88;;;1.50;;
2868;SDS011;1442;47.448;8.582;2022-10-16T15:30:24;4.37;;;1.70;;
2868;SDS011;1442;47.448;8.582;2022-10-16T15:32:52;3.75;;;1.33;;
2868;SDS011;1442;47.448;8.582;2022-10-16T15:35:19;4.50;;;1.70;;